Time;durP1;ratioP1;P1;durP2;ratioP2;P2;SDS_P1;SDS_P2;PMS_P1;PMS_P2;Temp;Humidity;BMP_temperature;BMP_pressure;BME280_temperature;BME280_humidity;BME280_pressure;Samples;Min_cycle;Max_cycle;Signal;HPM_P1;HPM_P2
2023/09/01 00:00:44;;;;;;;5.18;1.45;;;;;;;17.30;100.00;100556.06;5105096;28;20027;-71
2023/09/01 00:03:10;;;;;;;2.28;1.10;;;;;;;17.25;100.00;100553.25;5087838;28;20032;-71
2023/09/01 00:05:37;;;;;;;3.28;1.10;;;;;;;17.34;100.00;100562.63;5071078;28;20047;-71
2023/09/01 00:08:03;;;;;;;4.13;1.13;;;;;;;17.31;100.00;100555.78;5106078;28;20027;-71
2023/09/01 00:10:28;;;;;;;1.85;1.30;;;;;;;17.28;100.00;100561.72;5106336;28;20027;-71
2023/09/01 00:12:56;;;;;;;2.30;1.27;;;;;;;17.30;100.00;100564.22;5106953;28;20035;-71
2023/09/01 00:15:21;;;;;;;2.55;1.20;;;;;;;17.23;100.00;100553.50;5106935;28;20024;-71
2023/09/01 00:17:47;;;;;;;1.65;1.15;;;;;;;17.34;100.00;100566.16;5105618;28;20038;-71
2023/09/01 00:20:13;;;;;;;1.70;1.35;;;;;;;17.38;100.00;100572.78;5105938;28;20062;-71
2023/09/01 00:22:39;;;;;;;2.83;1.35;;;;;;;17.43;100.00;100571.19;5103654;28;20059;-71
2023/09/01 00:25:05;;;;;;;4.07;1.38;;;;;;;17.45;100.00;100571.75;5100347;28;20063;-71
2023/09/01 00:27:30;;;;;;;2.65;1.10;;;;;;;17.47;100.00;100570.44;5081921;28;20054;-71
2023/09/01 00:29:55;;;;;;;2.20;1.13;;;;;;;17.47;100.00;100575.88;5100870;28;20103;-71
2023/09/01 00:32:21;;;;;;;2.25;1.10;;;;;;;17.37;100.00;100560.22;5099014;28;20100;-70
2023/09/01 00:34:55;;;;;;;2.30;1.10;;;;;;;17.53;100.00;100574.88;5100142;28;20036;-70
2023/09/01 00:37:21;;;;;;;;;;;;;;;17.57;100.00;100569.75;5100872;28;20507;-71
2023/09/01 00:39:46;;;;;;;2.17;1.23;;;;;;;17.55;100.00;100572.75;5108464;28;20009;-72
2023/09/01 00:42:12;;;;;;;4.63;1.23;;;;;;;17.58;100.00;100574.13;5086876;28;20031;-71
2023/09/01 00:44:37;;;;;;;1.75;1.00;;;;;;;17.61;100.00;100565.44;5100647;28;20032;-71
2023/09/01 00:47:03;;;;;;;4.63;1.23;;;;;;;17.63;100.00;100568.75;5082629;28;20514;-71
2023/09/01 00:49:28;;;;;;;2.53;1.23;;;;;;;17.54;100.00;100553.94;5082546;28;20054;-70
2023/09/01 00:51:54;;;;;;;3.17;1.33;;;;;;;17.67;100.00;100569.88;5100886;28;20623;-71
2023/09/01 00:54:20;;;;;;;4.00;1.20;;;;;;;17.69;100.00;100558.78;5101277;28;20058;-70
2023/09/01 00:56:47;;;;;;;3.25;1.30;;;;;;;17.74;100.00;100562.34;5100066;28;20032;-71
2023/09/01 00:59:14;;;;;;;3.88;1.00;;;;;;;17.77;100.00;100570.06;5101070;28;20027;-71
2023/09/01 01:01:41;;;;;;;2.08;1.30;;;;;;;17.71;100.00;100553.88;5102413;28;20040;-71
2023/09/01 01:04:07;;;;;;;4.13;1.40;;;;;;;17.86;100.00;100564.19;5102441;28;20060;-71
2023/09/01 01:06:36;;;;;;;5.00;1.50;;;;;;;17.93;100.00;100568.34;5083767;28;20047;-71
2023/09/01 01:09:13;;;;;;;3.17;1.50;;;;;;;17.94;100.00;100559.09;5102917;28;20024;-73
2023/09/01 01:11:56;;;;;;;5.57;1.60;;;;;;;18.00;100.00;100562.72;5102763;28;20032;-71
2023/09/01 01:14:33;;;;;;;7.78;1.80;;;;;;;17.99;100.00;100561.06;5101890;28;20028;-70
2023/09/01 01:16:58;;;;;;;2.85;1.40;;;;;;;17.93;100.00;100546.56;5099440;28;20028;-70
2023/09/01 01:19:43;;;;;;;3.83;1.70;;;;;;;17.99;100.00;100552.91;5098952;28;20447;-71
2023/09/01 01:22:08;;;;;;;7.43;1.88;;;;;;;17.98;100.00;100554.81;5101799;28;20424;-71
2023/09/01 01:24:35;;;;;;;6.35;2.03;;;;;;;17.98;100.00;100554.81;5101079;28;20039;-71
2023/09/01 01:27:01;;;;;;;6.32;2.05;;;;;;;17.91;100.00;100542.44;5085125;28;20032;-71
2023/09/01 01:29:26;;;;;;;5.10;1.83;;;;;;;18.01;100.00;100556.19;5087167;28;20093;-71
2023/09/01 01:31:53;;;;;;;6.47;2.08;;;;;;;17.97;100.00;100542.25;5102391;28;20077;-71
2023/09/01 01:34:29;;;;;;;6.90;2.05;;;;;;;18.03;100.00;100554.03;5100840;28;20035;-71
2023/09/01 01:37:06;;;;;;;5.95;2.30;;;;;;;18.02;100.00;100555.13;5100632;28;20028;-70
2023/09/01 01:39:33;;;;;;;5.90;2.13;;;;;;;17.95;100.00;100540.88;5103842;28;20039;-71
2023/09/01 01:42:03;;;;;;;6.97;2.50;;;;;;;18.02;100.00;100547.78;5103814;28;20101;-72
2023/09/01 01:44:32;;;;;;;8.18;2.30;;;;;;;18.00;100.00;100555.38;5098949;28;20060;-71
2023/09/01 01:46:58;;;;;;;7.53;2.60;;;;;;;18.03;100.00;100545.88;5098645;28;20100;-71
2023/09/01 01:49:23;;;;;;;8.10;2.60;;;;;;;18.04;100.00;100542.06;5099596;28;20526;-71
2023/09/01 01:51:49;;;;;;;6.13;2.75;;;;;;;18.01;100.00;100540.69;5065118;28;20537;-71
2023/09/01 01:54:14;;;;;;;7.80;2.92;;;;;;;18.04;100.00;100542.88;5098155;28;20032;-70
2023/09/01 01:56:40;;;;;;;7.93;3.00;;;;;;;17.88;100.00;100510.28;5100344;28;20027;-71
2023/09/01 01:59:05;;;;;;;7.28;2.70;;;;;;;18.07;100.00;100541.56;5081807;28;20081;-71
2023/09/01 02:01:32;;;;;;;10.63;3.08;;;;;;;18.09;100.00;100539.41;5079713;28;20035;-71
2023/09/01 02:03:57;;;;;;;8.10;3.03;;;;;;;18.08;100.00;100543.22;5082302;28;20058;-71
2023/09/01 02:06:23;;;;;;;7.78;2.80;;;;;;;18.11;100.00;100539.97;5098474;28;20494;-71
2023/09/01 02:08:48;;;;;;;5.15;2.50;;;;;;;18.06;100.00;100535.28;5099319;28;20036;-70
2023/09/01 02:11:14;;;;;;;5.60;2.90;;;;;;;18.18;100.00;100548.78;5101231;28;20024;-71
2023/09/01 02:13:40;;;;;;;8.82;2.60;;;;;;;18.23;100.00;100543.38;5099809;28;20031;-71
2023/09/01 02:16:06;;;;;;;6.75;2.72;;;;;;;18.25;100.00;100551.28;5100937;28;20052;-71
2023/09/01 02:18:33;;;;;;;3.53;2.25;;;;;;;18.23;100.00;100553.44;5098337;28;20090;-71
2023/09/01 02:20:58;;;;;;;4.28;2.38;;;;;;;18.33;100.00;100555.44;5099108;28;20027;-71
2023/09/01 02:23:24;;;;;;;2.85;1.92;;;;;;;18.23;100.00;100537.91;5065793;28;20051;-71
2023/09/01 02:25:49;;;;;;;4.47;1.85;;;;;;;18.25;100.00;100543.13;5100400;28;20039;-71
2023/09/01 02:28:15;;;;;;;3.53;2.20;;;;;;;18.40;100.00;100554.16;5099277;28;20030;-71
2023/09/01 02:30:41;;;;;;;4.75;2.13;;;;;;;18.60;100.00;100544.53;5098836;28;20024;-71
2023/09/01 02:33:07;;;;;;;3.88;2.10;;;;;;;18.63;100.00;100546.75;5099317;28;20024;-72
2023/09/01 02:35:32;;;;;;;6.38;2.00;;;;;;;18.71;100.00;100551.75;5098512;28;20470;-71
2023/09/01 02:37:58;;;;;;;5.95;2.28;;;;;;;18.76;100.00;100547.16;5098633;28;20384;-71
2023/09/01 02:40:24;;;;;;;3.25;2.05;;;;;;;18.88;100.00;100554.38;5098271;28;20230;-72
2023/09/01 02:42:53;;;;;;;10.30;2.20;;;;;;;18.85;100.00;100550.25;5096619;28;20032;-71
2023/09/01 02:45:19;;;;;;;4.05;2.08;;;;;;;18.74;100.00;100546.63;5096963;28;20110;-71
2023/09/01 02:47:44;;;;;;;3.60;2.08;;;;;;;18.93;100.00;100551.66;5097867;28;20055;-72
2023/09/01 02:50:10;;;;;;;3.90;2.10;;;;;;;18.88;100.00;100538.00;5098995;28;20040;-71
2023/09/01 02:52:36;;;;;;;4.72;1.95;;;;;;;18.97;100.00;100552.78;5098516;28;20091;-72
2023/09/01 02:55:03;;;;;;;4.85;2.10;;;;;;;19.02;100.00;100552.84;5098901;28;20040;-72
2023/09/01 02:57:28;;;;;;;3.85;2.20;;;;;;;19.06;100.00;100543.03;5082402;28;20024;-72
2023/09/01 02:59:54;;;;;;;4.35;1.95;;;;;;;19.01;100.00;100534.84;5098917;28;20114;-72
2023/09/01 03:02:20;;;;;;;3.08;2.17;;;;;;;19.15;100.00;100548.84;5082086;28;20032;-71
2023/09/01 03:04:48;;;;;;;5.55;2.17;;;;;;;19.17;100.00;100544.78;5099119;28;20130;-72
2023/09/01 03:07:13;;;;;;;6.38;2.17;;;;;;;19.18;100.00;100551.88;5099559;28;20028;-72
2023/09/01 03:09:38;;;;;;;3.72;2.00;;;;;;;19.13;100.00;100549.09;5099702;28;20632;-72
2023/09/01 03:12:04;;;;;;;3.97;1.88;;;;;;;19.18;100.00;100551.88;5098646;28;20032;-71
2023/09/01 03:14:30;;;;;;;5.22;2.00;;;;;;;19.20;100.00;100557.88;5100243;28;20110;-72
2023/09/01 03:16:56;;;;;;;6.00;2.03;;;;;;;19.17;100.00;100549.38;5098986;28;20024;-71
2023/09/01 03:19:21;;;;;;;6.75;2.00;;;;;;;19.20;100.00;100546.13;5098942;28;20028;-72
2023/09/01 03:21:47;;;;;;;4.18;1.90;;;;;;;19.21;100.00;100548.63;5099253;28;20032;-72
2023/09/01 03:24:12;;;;;;;3.50;1.80;;;;;;;19.23;100.00;100540.16;5100299;28;20028;-71
2023/09/01 03:26:38;;;;;;;3.10;1.90;;;;;;;19.18;100.00;100535.50;5097882;28;20032;-72
2023/09/01 03:29:03;;;;;;;4.30;1.90;;;;;;;19.22;100.00;100549.44;5081593;28;20032;-72
2023/09/01 03:31:29;;;;;;;5.82;2.10;;;;;;;19.21;100.00;100543.16;5097724;28;20432;-72
2023/09/01 03:33:54;;;;;;;4.47;2.08;;;;;;;19.17;100.00;100544.78;5080795;28;20032;-71
2023/09/01 03:36:20;;;;;;;5.55;1.98;;;;;;;19.16;100.00;100540.38;5098557;28;20053;-72
2023/09/01 03:38:45;;;;;;;2.72;1.88;;;;;;;19.18;100.00;100546.41;5099363;28;20080;-71
2023/09/01 03:41:11;;;;;;;3.83;2.13;;;;;;;19.02;100.00;100533.75;5097924;28;20028;-72
2023/09/01 03:43:36;;;;;;;5.63;2.53;;;;;;;19.13;100.00;100549.09;5099039;28;20584;-72
2023/09/01 03:46:02;;;;;;;2.83;1.80;;;;;;;19.11;100.00;100542.28;5098754;28;20593;-71
2023/09/01 03:48:28;;;;;;;6.28;2.30;;;;;;;19.07;100.00;100550.13;5095457;28;20043;-71
2023/09/01 03:51:11;;;;;;;3.35;1.98;;;;;;;19.04;100.00;100542.50;5097992;28;20027;-72
2023/09/01 03:53:37;;;;;;;3.47;2.03;;;;;;;19.07;100.00;100543.84;5098197;28;20032;-72
2023/09/01 03:56:16;;;;;;;4.78;2.63;;;;;;;19.08;100.00;100549.06;5082266;28;20048;-71
2023/09/01 03:58:42;;;;;;;5.45;2.47;;;;;;;18.99;100.00;100537.00;5100002;28;20032;-72
2023/09/01 04:01:11;;;;;;;4.70;2.25;;;;;;;19.00;100.00;100544.09;5098376;28;20673;-72
2023/09/01 04:03:41;;;;;;;3.75;2.08;;;;;;;18.84;100.00;100523.22;5082517;28;20024;-72
2023/09/01 04:06:07;;;;;;;4.55;2.22;;;;;;;18.95;100.00;100544.06;5098148;28;20028;-72
2023/09/01 04:08:37;;;;;;;8.38;2.45;;;;;;;18.91;100.00;100537.50;5098826;28;20437;-71
2023/09/01 04:11:03;;;;;;;4.13;2.42;;;;;;;18.73;100.00;100527.78;5099595;28;20550;-72
2023/09/01 04:13:29;;;;;;;5.88;2.70;;;;;;;18.78;100.00;100542.28;5099614;28;20046;-72
2023/09/01 04:15:55;;;;;;;3.35;2.22;;;;;;;18.75;100.00;100542.81;5065483;28;20114;-72
2023/09/01 04:18:21;;;;;;;5.15;2.88;;;;;;;18.61;100.00;100535.28;5098282;28;20441;-71
2023/09/01 04:20:51;;;;;;;5.05;2.60;;;;;;;18.68;100.00;100544.09;5099889;28;20020;-73
2023/09/01 04:23:18;;;;;;;3.58;2.40;;;;;;;18.64;100.00;100548.38;5099617;28;20055;-72
2023/09/01 04:25:44;;;;;;;3.72;2.58;;;;;;;18.60;100.00;100550.81;5081930;28;20031;-73
2023/09/01 04:28:10;;;;;;;8.10;3.05;;;;;;;18.56;100.00;100544.25;5098441;28;20445;-73
2023/09/01 04:30:36;;;;;;;5.13;2.65;;;;;;;18.53;100.00;100544.75;5099283;28;20129;-73
2023/09/01 04:33:04;;;;;;;6.03;2.70;;;;;;;18.52;100.00;100554.03;5081415;28;20032;-73
2023/09/01 04:35:30;;;;;;;3.30;2.40;;;;;;;18.43;100.00;100555.56;5099274;28;20031;-73
2023/09/01 04:37:56;;;;;;;5.25;2.38;;;;;;;18.37;100.00;100562.84;5096526;28;20025;-73
2023/09/01 04:40:21;;;;;;;6.47;2.58;;;;;;;18.29;100.00;100558.69;5099485;28;20078;-74
2023/09/01 04:42:47;;;;;;;5.05;2.80;;;;;;;18.20;100.00;100559.41;5100935;28;20028;-74
2023/09/01 04:45:12;;;;;;;4.25;2.65;;;;;;;18.10;100.00;100554.66;5104324;28;20024;-73
2023/09/01 04:47:37;;;;;;;5.25;2.45;;;;;;;18.15;100.00;100568.34;5102329;28;20034;-73
2023/09/01 04:50:03;;;;;;;4.63;2.50;;;;;;;18.15;100.00;100560.19;5103212;28;20024;-74
2023/09/01 04:52:29;;;;;;;5.78;2.83;;;;;;;18.06;100.00;100548.09;5102213;28;20052;-73
2023/09/01 04:54:54;;;;;;;4.55;2.63;;;;;;;18.00;100.00;100557.28;5084008;28;20130;-73
2023/09/01 04:57:19;;;;;;;3.45;2.78;;;;;;;17.91;100.00;100551.44;5081331;28;20109;-72
2023/09/01 04:59:45;;;;;;;5.97;2.78;;;;;;;17.94;100.00;100556.38;5101197;28;20024;-74
2023/09/01 05:02:11;;;;;;;7.47;2.63;;;;;;;17.95;100.00;100555.31;5104295;28;20151;-73
2023/09/01 05:04:37;;;;;;;5.10;2.78;;;;;;;17.96;100.00;100558.84;5103867;28;20038;-73
2023/09/01 05:07:02;;;;;;;5.22;2.35;;;;;;;18.00;100.00;100557.28;5086441;28;20033;-74
2023/09/01 05:09:28;;;;;;;5.82;2.63;;;;;;;18.04;100.00;100561.13;5102733;28;20029;-74
2023/09/01 05:11:53;;;;;;;4.30;2.53;;;;;;;18.06;100.00;100561.69;5102310;28;20057;-73
2023/09/01 05:14:18;;;;;;;2.97;2.22;;;;;;;18.05;100.00;100569.06;5103420;28;20054;-74
2023/09/01 05:16:44;;;;;;;7.60;2.60;;;;;;;18.10;100.00;100562.81;5101982;28;20024;-73
2023/09/01 05:19:09;;;;;;;3.67;2.40;;;;;;;18.13;100.00;100565.03;5103023;28;20492;-73
2023/09/01 05:21:35;;;;;;;5.20;3.00;;;;;;;18.14;100.00;100565.88;5101879;28;20062;-72
2023/09/01 05:24:00;;;;;;;3.15;2.40;;;;;;;18.04;100.00;100553.78;5107304;28;20036;-72
2023/09/01 05:26:26;;;;;;;5.20;2.70;;;;;;;18.13;100.00;100573.22;5104969;28;20020;-73
2023/09/01 05:28:51;;;;;;;4.18;2.35;;;;;;;18.16;100.00;100564.53;5070171;28;20030;-74
2023/09/01 05:31:16;;;;;;;4.07;2.47;;;;;;;18.18;100.00;100570.56;5086847;28;20093;-72
2023/09/01 05:33:42;;;;;;;4.07;2.67;;;;;;;18.06;100.00;100551.63;5101488;28;20063;-73
2023/09/01 05:36:07;;;;;;;4.15;2.80;;;;;;;18.11;100.00;100572.63;5102561;28;20028;-73
2023/09/01 05:38:32;;;;;;;3.97;2.83;;;;;;;18.13;100.00;100566.94;5086971;28;20032;-73
2023/09/01 05:41:01;;;;;;;5.35;2.50;;;;;;;18.07;100.00;100563.34;5113398;28;20016;-73
2023/09/01 05:43:27;;;;;;;5.28;2.75;;;;;;;18.02;100.00;100560.56;5113911;28;20031;-73
2023/09/01 05:45:52;;;;;;;4.85;2.67;;;;;;;17.99;100.00;100558.34;5108045;28;20020;-73
2023/09/01 05:48:18;;;;;;;4.07;2.80;;;;;;;18.06;100.00;100569.88;5099375;28;20386;-73
2023/09/01 05:50:44;;;;;;;5.13;2.80;;;;;;;18.03;100.00;100556.75;5099409;28;20028;-73
2023/09/01 05:53:10;;;;;;;5.18;2.72;;;;;;;17.94;100.00;100544.66;5101781;28;20056;-73
2023/09/01 05:55:38;;;;;;;4.32;3.03;;;;;;;17.97;100.00;100561.31;5066259;28;20059;-74
2023/09/01 05:58:04;;;;;;;5.05;2.90;;;;;;;18.13;100.00;100566.94;5100852;28;20039;-73
2023/09/01 06:00:29;;;;;;;3.42;2.75;;;;;;;18.26;100.00;100572.00;5084041;28;20024;-73
2023/09/01 06:02:56;;;;;;;4.72;2.90;;;;;;;18.33;100.00;100567.16;5083981;28;20121;-73
2023/09/01 06:05:22;;;;;;;5.63;3.20;;;;;;;18.46;100.00;100587.75;5100537;28;20038;-72
2023/09/01 06:07:48;;;;;;;6.20;2.95;;;;;;;18.47;100.00;100583.94;5083695;28;20043;-73
2023/09/01 06:10:13;;;;;;;4.30;2.90;;;;;;;18.36;100.00;100576.72;5101273;28;20032;-72
2023/09/01 06:12:39;;;;;;;5.35;2.90;;;;;;;18.50;100.00;100588.88;5101528;28;20024;-73
2023/09/01 06:15:05;;;;;;;7.65;3.05;;;;;;;18.57;100.00;100586.75;5103738;28;20027;-73
2023/09/01 06:17:31;;;;;;;3.65;2.72;;;;;;;18.64;100.00;100589.25;5105036;28;20039;-73
2023/09/01 06:19:56;;;;;;;4.32;3.03;;;;;;;18.64;100.00;100587.38;5105510;28;20024;-73
2023/09/01 06:22:22;;;;;;;4.40;2.80;;;;;;;18.71;100.00;100590.72;5086486;28;20559;-73
2023/09/01 06:24:47;;;;;;;5.20;2.92;;;;;;;18.52;100.00;100538.47;5103286;28;20035;-73
2023/09/01 06:27:13;;;;;;;8.98;3.30;;;;;;;19.11;100.00;100585.91;5105893;28;20102;-73
2023/09/01 06:29:38;;;;;;;5.75;2.90;;;;;;;19.28;100.00;100588.50;5103524;28;20024;-73
2023/09/01 06:32:04;;;;;;;6.00;3.45;;;;;;;19.30;100.00;100583.56;5086484;28;20341;-73
2023/09/01 06:34:30;;;;;;;3.60;2.63;;;;;;;19.29;100.00;100579.22;5103554;28;20050;-73
2023/09/01 06:36:56;;;;;;;3.03;2.60;;;;;;;19.41;100.00;100588.84;5086446;28;20032;-73
2023/09/01 06:39:22;;;;;;;6.05;2.72;;;;;;;19.47;100.00;100581.53;5104664;28;20020;-73
2023/09/01 06:41:47;;;;;;;6.57;2.50;;;;;;;19.51;100.00;100584.53;5104324;28;20035;-73
2023/09/01 06:44:13;;;;;;;4.70;2.70;;;;;;;19.61;100.00;100593.59;5086373;28;20031;-73
2023/09/01 06:46:38;;;;;;;7.53;2.80;;;;;;;19.70;100.00;100593.94;5105255;28;20019;-73
2023/09/01 06:49:04;;;;;;;4.85;2.67;;;;;;;19.80;100.00;100595.91;5103497;28;20055;-73
2023/09/01 06:51:29;;;;;;;6.88;2.53;;;;;;;19.92;100.00;100608.25;5103159;28;20129;-73
2023/09/01 06:53:55;;;;;;;4.35;2.60;;;;;;;19.82;100.00;100589.09;5104671;28;20034;-74
2023/09/01 06:56:21;;;;;;;4.15;2.80;;;;;;;20.09;100.00;100609.97;5104503;28;20032;-73
2023/09/01 06:58:46;;;;;;;4.63;2.83;;;;;;;20.25;100.00;100608.13;5084421;28;20114;-74
2023/09/01 07:01:15;;;;;;;5.90;2.88;;;;;;;20.25;100.00;100614.41;5086882;28;20032;-73
2023/09/01 07:03:42;;;;;;;4.43;2.60;;;;;;;20.41;100.00;100610.63;5105546;28;20075;-74
2023/09/01 07:06:07;;;;;;;8.77;2.75;;;;;;;20.52;100.00;100616.97;5103367;28;20043;-73
2023/09/01 07:08:32;;;;;;;7.32;2.65;;;;;;;20.40;100.00;100619.09;5103836;28;20024;-73
2023/09/01 07:11:06;;;;;;;8.88;2.50;;;;;;;20.48;100.00;100626.75;5103134;28;20028;-74
2023/09/01 07:13:32;;;;;;;5.65;2.38;;;;;;;20.52;100.00;100607.94;5104116;28;20036;-73
2023/09/01 07:15:58;;;;;;;4.93;2.42;;;;;;;20.57;100.00;100624.38;5104086;28;20024;-73
2023/09/01 07:18:23;;;;;;;5.85;2.50;;;;;;;20.57;100.00;100622.44;5104279;28;20509;-73
2023/09/01 07:20:50;;;;;;;4.72;2.30;;;;;;;20.75;100.00;100620.28;5103014;28;20078;-74
2023/09/01 07:23:16;;;;;;;6.10;2.40;;;;;;;20.86;100.00;100617.31;5102859;28;20028;-73
2023/09/01 07:25:44;;;;;;;4.93;2.00;;;;;;;20.93;100.00;100627.16;5101694;28;20096;-73
2023/09/01 07:28:11;;;;;;;4.05;2.10;;;;;;;21.00;100.00;100630.44;5100626;28;20024;-74
2023/09/01 07:30:37;;;;;;;4.20;2.22;;;;;;;21.06;100.00;100624.69;5099861;28;20024;-73
2023/09/01 07:33:02;;;;;;;9.18;2.40;;;;;;;20.93;100.00;100608.84;5098460;28;20051;-72
2023/09/01 07:35:28;;;;;;;2.92;1.90;;;;;;;21.00;100.00;100631.25;5077289;28;20384;-73
2023/09/01 07:37:55;;;;;;;3.42;2.40;;;;;;;20.88;100.00;100614.28;5096705;28;20040;-74
2023/09/01 07:40:20;;;;;;;4.40;2.50;;;;;;;21.00;100.00;100623.06;5095187;28;20020;-74
2023/09/01 07:42:46;;;;;;;3.35;2.15;;;;;;;21.00;100.00;100623.06;5090667;28;20398;-73
2023/09/01 07:45:11;;;;;;;4.15;2.45;;;;;;;21.11;100.00;100626.59;5078217;28;20035;-73
2023/09/01 07:47:37;;;;;;;6.05;2.30;;;;;;;21.23;100.00;100629.91;5099227;28;20032;-74
2023/09/01 07:50:02;;;;;;;4.50;2.20;;;;;;;21.26;100.00;100628.53;5081631;28;20024;-73
2023/09/01 07:52:29;;;;;;;5.47;2.28;;;;;;;21.19;100.00;100615.13;5098182;28;20052;-73
2023/09/01 07:54:55;;;;;;;5.13;2.03;;;;;;;21.25;100.00;100630.44;5101302;28;20097;-73
2023/09/01 07:57:20;;;;;;;3.65;2.00;;;;;;;21.21;100.00;100620.31;5101709;28;20024;-74
2023/09/01 07:59:45;;;;;;;4.07;2.22;;;;;;;21.12;100.00;100636.44;5101173;28;20495;-74
2023/09/01 08:02:11;;;;;;;3.70;2.03;;;;;;;21.10;100.00;100631.25;5100023;28;20036;-73
2023/09/01 08:04:36;;;;;;;2.78;1.98;;;;;;;21.09;100.00;100628.78;5100377;28;20442;-73
2023/09/01 08:07:03;;;;;;;2.63;2.00;;;;;;;21.04;100.00;100628.81;5100485;28;20024;-73
2023/09/01 08:09:29;;;;;;;2.67;1.70;;;;;;;21.07;100.00;100631.81;5068188;28;20394;-73
2023/09/01 08:11:55;;;;;;;5.22;2.10;;;;;;;21.00;100.00;100631.25;5104681;28;20103;-73
2023/09/01 08:14:20;;;;;;;3.45;1.95;;;;;;;20.96;100.00;100629.31;5104021;28;20036;-74
2023/09/01 08:16:46;;;;;;;3.10;1.83;;;;;;;21.03;100.00;100635.38;5086282;28;20027;-73
2023/09/01 08:19:11;;;;;;;3.60;1.83;;;;;;;21.05;100.00;100633.97;5108227;28;20098;-73
2023/09/01 08:21:37;;;;;;;2.10;1.80;;;;;;;21.15;100.00;100626.88;5107465;28;20035;-73
2023/09/01 08:24:02;;;;;;;2.75;1.90;;;;;;;21.04;100.00;100628.81;5104664;28;20517;-73
2023/09/01 08:26:28;;;;;;;2.50;1.90;;;;;;;21.02;100.00;100637.25;5102761;28;20497;-73
2023/09/01 08:28:53;;;;;;;3.95;1.80;;;;;;;21.00;99.65;100636.72;5105193;28;20093;-74
2023/09/01 08:31:19;;;;;;;3.00;1.60;;;;;;;21.09;97.71;100640.56;5102097;28;20106;-73
2023/09/01 08:33:45;;;;;;;3.72;1.52;;;;;;;21.16;95.43;100633.97;5103445;28;20048;-74
2023/09/01 08:36:11;;;;;;;2.08;1.50;;;;;;;21.14;93.08;100641.66;5102419;28;20028;-73
2023/09/01 08:38:36;;;;;;;2.22;1.38;;;;;;;21.09;90.83;100640.56;5100039;28;20032;-72
2023/09/01 08:41:06;;;;;;;4.22;1.60;;;;;;;20.99;87.75;100640.56;5086145;28;20034;-74
2023/09/01 08:43:38;;;;;;;3.08;1.60;;;;;;;20.90;85.47;100638.66;5086082;28;20208;-73
2023/09/01 08:46:05;;;;;;;2.45;1.60;;;;;;;20.90;84.81;100647.66;5103252;28;20035;-74
2023/09/01 08:48:31;;;;;;;5.07;1.85;;;;;;;20.88;85.14;100631.50;5102851;28;20028;-74
2023/09/01 08:50:57;;;;;;;2.72;1.50;;;;;;;20.98;84.80;100651.78;5101306;28;20047;-74
2023/09/01 08:53:26;;;;;;;4.72;1.35;;;;;;;20.92;84.92;100656.41;5100270;28;20051;-73
2023/09/01 08:55:53;;;;;;;7.55;1.58;;;;;;;21.00;85.90;100655.88;5096399;28;20383;-74
2023/09/01 08:58:18;;;;;;;2.95;1.63;;;;;;;20.90;86.85;100636.72;5100496;28;20623;-73
2023/09/01 09:00:44;;;;;;;3.85;1.70;;;;;;;21.11;88.24;100648.50;5099553;28;20129;-73
2023/09/01 09:03:13;;;;;;;2.30;1.70;;;;;;;20.92;89.09;100652.84;5098979;28;20024;-74
2023/09/01 09:05:39;;;;;;;4.25;1.73;;;;;;;20.60;88.00;100632.03;5083118;28;20032;-73
2023/09/01 09:08:07;;;;;;;3.47;2.03;;;;;;;20.69;87.99;100641.31;5100815;28;20032;-74
2023/09/01 09:10:38;;;;;;;3.75;1.88;;;;;;;20.70;87.05;100653.09;5102357;28;20028;-74
2023/09/01 09:13:19;;;;;;;2.90;1.75;;;;;;;20.71;87.13;100654.75;5101509;28;20020;-73
2023/09/01 09:15:44;;;;;;;4.32;1.85;;;;;;;20.76;87.03;100662.94;5100630;28;20073;-74
2023/09/01 09:18:10;;;;;;;3.38;1.70;;;;;;;20.79;86.61;100665.13;5097993;28;20115;-73
2023/09/01 09:20:38;;;;;;;2.67;2.08;;;;;;;20.63;86.10;100661.56;5078394;28;20016;-74
2023/09/01 09:23:03;;;;;;;3.08;1.90;;;;;;;20.59;84.84;100658.53;5101093;28;20023;-74
2023/09/01 09:25:33;;;;;;;3.33;1.73;;;;;;;20.60;83.01;100653.91;5085026;28;20043;-74
2023/09/01 09:28:20;;;;;;;3.22;1.75;;;;;;;20.57;84.34;100660.72;5101065;28;20048;-74
2023/09/01 09:30:52;;;;;;;2.35;1.83;;;;;;;20.63;83.98;100659.66;5101160;28;20036;-75
2023/09/01 09:33:32;;;;;;;2.47;1.70;;;;;;;20.72;84.83;100667.31;5101279;28;20024;-74
2023/09/01 09:35:57;;;;;;;4.03;2.03;;;;;;;20.57;84.40;100655.25;5103543;28;20028;-74
2023/09/01 09:38:35;;;;;;;4.55;2.00;;;;;;;20.56;85.37;100667.28;5105770;28;20032;-74
2023/09/01 09:41:01;;;;;;;2.53;1.77;;;;;;;20.43;88.50;100667.75;5100113;28;20024;-73
2023/09/01 09:43:27;;;;;;;4.38;2.17;;;;;;;20.46;89.12;100669.94;5081731;28;20498;-73
2023/09/01 09:45:54;;;;;;;6.15;2.38;;;;;;;20.46;90.30;100664.47;5104311;28;20544;-75
2023/09/01 09:48:19;;;;;;;3.92;2.00;;;;;;;20.44;92.29;100668.59;5107220;28;20036;-73
2023/09/01 09:50:47;;;;;;;4.15;2.00;;;;;;;20.30;93.54;100662.78;5103641;28;20035;-73
2023/09/01 09:53:16;;;;;;;3.65;2.20;;;;;;;20.36;95.08;100672.63;5102135;28;20127;-74
2023/09/01 09:55:45;;;;;;;5.38;2.30;;;;;;;20.31;95.14;100689.84;5099815;28;20043;-75
2023/09/01 09:58:12;;;;;;;2.55;2.33;;;;;;;20.33;95.68;100674.00;5102313;28;20019;-73
2023/09/01 10:01:02;;;;;;;3.30;2.33;;;;;;;20.23;95.12;100686.78;5083789;28;20057;-72
2023/09/01 10:03:31;;;;;;;4.13;2.17;;;;;;;20.21;93.86;100675.31;5106641;28;20088;-72
2023/09/01 10:06:02;;;;;;;3.28;2.50;;;;;;;20.34;93.82;100699.41;5103258;28;20019;-72
2023/09/01 10:08:29;;;;;;;4.93;2.22;;;;;;;20.13;94.92;100682.09;5080623;28;20499;-72
2023/09/01 10:10:57;;;;;;;3.60;2.47;;;;;;;20.36;95.69;100699.97;5096545;28;20028;-71
2023/09/01 10:13:23;;;;;;;3.50;2.50;;;;;;;20.29;97.22;100697.47;5097395;28;20153;-70
2023/09/01 10:15:48;;;;;;;4.53;2.42;;;;;;;20.29;99.77;100693.91;5096362;28;20112;-70
2023/09/01 10:18:14;;;;;;;4.90;2.47;;;;;;;20.39;97.58;100699.44;5075563;28;20032;-70
2023/09/01 10:20:43;;;;;;;3.33;2.42;;;;;;;20.51;96.85;100705.53;5103766;28;20015;-70
2023/09/01 10:23:09;;;;;;;7.38;2.50;;;;;;;20.58;95.98;100692.44;5103667;28;20016;-70
2023/09/01 10:25:35;;;;;;;5.03;3.00;;;;;;;20.59;97.19;100707.72;5101813;28;20035;-70
2023/09/01 10:28:11;;;;;;;4.85;2.33;;;;;;;20.61;98.14;100707.47;5105322;28;20032;-74
2023/09/01 10:30:42;;;;;;;4.63;2.65;;;;;;;20.40;100.00;100714.75;5104667;28;20091;-71
2023/09/01 10:33:36;;;;;;;5.15;2.80;;;;;;;20.53;100.00;100703.38;5110455;28;20138;-72
2023/09/01 10:36:13;;;;;;;3.67;2.70;;;;;;;20.53;100.00;100708.81;5068801;28;20093;-74
2023/09/01 10:38:39;;;;;;;5.28;2.70;;;;;;;20.74;100.00;100714.34;5086433;28;20035;-74
2023/09/01 10:41:04;;;;;;;5.50;2.92;;;;;;;20.75;100.00;100705.88;5107874;28;20028;-73
2023/09/01 10:43:37;;;;;;;6.72;3.00;;;;;;;20.75;100.00;100705.88;5110411;28;20165;-70
2023/09/01 10:46:14;;;;;;;4.72;3.38;;;;;;;20.93;100.00;100712.78;5113581;28;20010;-69
2023/09/01 10:49:00;;;;;;;7.32;3.05;;;;;;;20.65;100.00;100714.06;5110572;28;20402;-74
2023/09/01 10:51:29;;;;;;;3.42;2.80;;;;;;;20.81;100.00;100710.28;5111611;28;20068;-71
2023/09/01 10:53:56;;;;;;;5.38;2.92;;;;;;;20.76;100.00;100715.75;5108879;28;20066;-73
2023/09/01 10:56:22;;;;;;;3.90;2.72;;;;;;;21.00;100.00;100710.59;5090865;28;20032;-72
2023/09/01 10:58:50;;;;;;;4.25;2.95;;;;;;;20.97;100.00;100708.41;5107674;28;20028;-71
2023/09/01 11:01:24;;;;;;;5.50;2.90;;;;;;;20.80;100.00;100713.28;5105652;28;20020;-71
2023/09/01 11:03:50;;;;;;;4.13;2.70;;;;;;;20.99;100.00;100705.38;5102004;28;20027;-71
2023/09/01 11:06:15;;;;;;;5.15;3.00;;;;;;;21.20;99.88;100707.06;5079878;28;20047;-73
2023/09/01 11:08:41;;;;;;;4.72;2.55;;;;;;;21.33;99.06;100711.19;5045680;28;20750;-74
2023/09/01 11:11:10;;;;;;;5.93;2.80;;;;;;;21.25;97.73;100708.97;5078900;28;20122;-73
2023/09/01 11:13:36;;;;;;;5.38;2.60;;;;;;;21.18;96.62;100695.56;5102574;28;20024;-72
2023/09/01 11:16:09;;;;;;;4.38;2.58;;;;;;;21.13;95.56;100700.22;5079850;28;20028;-71
2023/09/01 11:18:34;;;;;;;5.28;2.50;;;;;;;21.31;95.43;100708.69;5098455;28;20032;-72